Time;durP1;ratioP1;P1;durP2;ratioP2;P2;SDS_P1;SDS_P2;PMS_P1;PMS_P2;Temp;Humidity;BMP_temperature;BMP_pressure;BME280_temperature;BME280_humidity;BME280_pressure;Samples;Min_cycle;Max_cycle;Signal;HPM_P1;HPM_P2
2022/01/26 00:07:14;;;;;;;;;;;19.60;34.80;;;;;;5113644;28;20001;-64
2022/01/26 00:09:39;;;;;;;;;;;19.60;34.80;;;;;;5113748;28;19912;-64
2022/01/26 00:12:05;;;;;;;;;;;19.50;34.80;;;;;;5113733;28;20371;-64
2022/01/26 00:14:30;;;;;;;;;;;19.60;34.90;;;;;;5113596;28;19908;-65
2022/01/26 00:16:56;;;;;;;;;;;19.60;34.80;;;;;;5095264;28;20279;-64
2022/01/26 00:19:25;;;;;;;;;;;19.50;34.80;;;;;;5113837;28;20375;-64
2022/01/26 00:21:56;;;;;;;;;;;19.60;34.80;;;;;;5113372;28;20056;-64
2022/01/26 00:27:26;;;;;;;;;;;19.60;34.80;;;;;;5113647;28;19914;-65
2022/01/26 00:30:01;;;;;;;;;;;19.50;34.90;;;;;;5113444;28;19908;-65
2022/01/26 00:41:02;;;;;;;;;;;19.50;34.80;;;;;;5113783;28;19918;-64
2022/01/26 00:43:28;;;;;;;;;;;19.50;34.70;;;;;;5113485;28;19912;-63
2022/01/26 00:45:58;;;;;;;;;;;19.50;34.80;;;;;;5113658;28;19916;-64
2022/01/26 00:48:24;;;;;;;;;;;19.50;34.80;;;;;;5113444;28;19961;-63
2022/01/26 00:50:52;;;;;;;;;;;19.50;34.80;;;;;;5113336;28;19915;-63
2022/01/26 00:53:24;;;;;;;;;;;19.50;34.70;;;;;;5113250;28;19908;-63
2022/01/26 00:55:49;;;;;;;;;;;19.50;34.80;;;;;;5113529;28;19907;-63
2022/01/26 00:58:15;;;;;;;;;;;19.50;34.70;;;;;;5113198;28;19914;-63
2022/01/26 01:00:40;;;;;;;;;;;19.50;34.70;;;;;;5113278;28;19914;-63
2022/01/26 01:03:06;;;;;;;;;;;19.50;34.70;;;;;;5113107;28;19912;-64
2022/01/26 01:06:19;;;;;;;;;;;19.50;34.80;;;;;;5112841;28;19915;-63
2022/01/26 01:08:23;;;;;;;;;;;19.50;34.80;;;;;;5104569;28;19938;-63
2022/01/26 01:10:50;;;;;;;;;;;19.50;34.70;;;;;;5115992;28;19953;-63
2022/01/26 01:13:19;;;;;;;;;;;19.50;34.70;;;;;;5116809;28;19908;-63
2022/01/26 01:15:45;;;;;;;;;;;19.50;34.80;;;;;;5116963;28;19908;-63
2022/01/26 01:18:31;;;;;;;;;;;19.50;34.70;;;;;;5116813;28;19914;-63
2022/01/26 01:26:46;;;;;;;;;;;19.50;34.60;;;;;;5116911;28;20351;-62
2022/01/26 01:29:27;;;;;;;;;;;19.50;34.70;;;;;;5116685;28;19908;-63
2022/01/26 01:31:58;;;;;;;;;;;19.50;34.70;;;;;;5116741;28;19908;-64
2022/01/26 01:34:34;;;;;;;;;;;19.50;34.60;;;;;;5116882;28;19961;-64
2022/01/26 01:37:05;;;;;;;;;;;19.50;34.70;;;;;;5116795;28;19914;-63
2022/01/26 01:39:31;;;;;;;;;;;19.40;34.70;;;;;;5116662;28;19907;-63
2022/01/26 01:41:56;;;;;;;;;;;19.50;34.70;;;;;;5116330;28;19992;-64
2022/01/26 01:44:22;;;;;;;;;;;19.40;34.60;;;;;;5116282;28;19981;-64
2022/01/26 01:46:49;;;;;;;;;;;19.40;34.60;;;;;;5116317;28;20356;-64
2022/01/26 01:49:15;;;;;;;;;;;19.50;34.70;;;;;;5116035;28;19951;-63
2022/01/26 01:51:46;;;;;;;;;;;19.50;34.60;;;;;;5116199;28;19908;-63
2022/01/26 01:54:16;;;;;;;;;;;19.40;34.60;;;;;;5116062;28;20407;-63
2022/01/26 01:56:43;;;;;;;;;;;19.40;34.70;;;;;;5116175;28;19915;-64
2022/01/26 01:59:09;;;;;;;;;;;19.40;34.70;;;;;;5115826;28;20006;-65
2022/01/26 02:01:34;;;;;;;;;;;19.40;34.70;;;;;;5115934;28;19908;-63
2022/01/26 02:04:00;;;;;;;;;;;19.40;34.70;;;;;;5116038;28;20279;-63
2022/01/26 02:06:25;;;;;;;;;;;19.40;34.80;;;;;;5116011;28;19914;-63
2022/01/26 02:08:51;;;;;;;;;;;19.40;34.70;;;;;;5115716;28;19908;-63
2022/01/26 02:11:16;;;;;;;;;;;19.40;34.70;;;;;;5115767;28;19907;-63
2022/01/26 02:13:55;;;;;;;;;;;19.40;34.60;;;;;;5115698;28;19908;-64
2022/01/26 02:22:01;;;;;;;;;;;19.40;34.60;;;;;;5115151;28;19907;-63
2022/01/26 02:49:43;;;;;;;;;;;19.30;34.60;;;;;;5114917;28;19930;-63
2022/01/26 02:54:50;;;;;;;;;;;19.40;34.60;;;;;;5114816;28;19908;-63
2022/01/26 02:57:39;;;;;;;;;;;19.30;34.60;;;;;;5114675;28;19915;-63
2022/01/26 03:00:23;;;;;;;;;;;19.30;34.50;;;;;;5114320;28;19958;-63
2022/01/26 03:02:56;;;;;;;;;;;19.30;34.60;;;;;;5114598;28;19911;-63
2022/01/26 03:05:27;;;;;;;;;;;19.40;34.60;;;;;;5114572;28;20017;-64
2022/01/26 03:08:01;;;;;;;;;;;19.30;34.60;;;;;;5114888;28;19915;-64
2022/01/26 03:13:17;;;;;;;;;;;19.30;34.50;;;;;;5114787;28;19915;-63
2022/01/26 03:15:48;;;;;;;;;;;19.30;34.50;;;;;;5114664;28;19930;-63
2022/01/26 03:21:03;;;;;;;;;;;19.30;34.60;;;;;;5114882;28;20479;-63
2022/01/26 03:31:59;;;;;;;;;;;19.30;34.50;;;;;;5114488;28;20367;-63
2022/01/26 03:34:16;;;;;;;;;;;19.30;34.50;;;;;;5114110;28;19908;-63
2022/01/26 03:39:16;;;;;;;;;;;19.30;34.50;;;;;;5114336;28;20009;-63
2022/01/26 03:42:05;;;;;;;;;;;19.30;34.50;;;;;;5114259;28;19998;-63
2022/01/26 03:44:31;;;;;;;;;;;19.30;34.50;;;;;;5114358;28;19915;-63
2022/01/26 03:46:56;;;;;;;;;;;19.30;34.50;;;;;;5114484;28;19907;-63
2022/01/26 03:49:22;;;;;;;;;;;19.30;34.50;;;;;;5114157;28;20378;-63
2022/01/26 03:51:47;;;;;;;;;;;19.30;34.60;;;;;;5114275;28;19908;-63
2022/01/26 03:54:13;;;;;;;;;;;19.20;34.50;;;;;;5113956;28;19908;-63
2022/01/26 03:56:39;;;;;;;;;;;19.20;34.50;;;;;;5114073;28;19908;-63
2022/01/26 03:59:05;;;;;;;;;;;19.20;34.50;;;;;;5113774;28;19920;-63
2022/01/26 04:01:31;;;;;;;;;;;19.20;34.60;;;;;;5114300;28;19974;-63
2022/01/26 04:03:57;;;;;;;;;;;19.20;34.60;;;;;;5113960;28;19908;-64
2022/01/26 04:06:23;;;;;;;;;;;19.20;34.50;;;;;;5114255;28;19954;-63
2022/01/26 04:08:49;;;;;;;;;;;19.20;34.50;;;;;;5113814;28;19908;-63
2022/01/26 04:11:30;;;;;;;;;;;19.20;34.60;;;;;;5114072;28;20432;-63
2022/01/26 04:14:18;;;;;;;;;;;19.20;34.50;;;;;;5114116;28;19915;-64
2022/01/26 04:16:44;;;;;;;;;;;19.20;34.50;;;;;;5113847;28;20354;-64
2022/01/26 04:19:10;;;;;;;;;;;19.20;34.60;;;;;;5113739;28;20003;-63
2022/01/26 04:24:20;;;;;;;;;;;19.20;34.60;;;;;;5114152;28;19961;-64
2022/01/26 04:26:55;;;;;;;;;;;19.20;34.50;;;;;;5113720;28;19915;-63
2022/01/26 04:29:29;;;;;;;;;;;19.20;34.60;;;;;;5113738;28;19955;-63
2022/01/26 04:31:56;;;;;;;;;;;19.20;34.60;;;;;;5113916;28;19908;-63
2022/01/26 04:34:21;;;;;;;;;;;19.10;34.60;;;;;;5113864;28;20012;-63
2022/01/26 04:37:20;;;;;;;;;;;19.20;34.60;;;;;;5113871;28;20347;-64
2022/01/26 04:39:39;;;;;;;;;;;19.10;34.50;;;;;;5113097;28;19908;-63
2022/01/26 04:42:11;;;;;;;;;;;19.10;34.60;;;;;;5095088;28;19912;-63
2022/01/26 04:44:43;;;;;;;;;;;19.10;34.60;;;;;;5116180;28;20314;-63
2022/01/26 04:47:09;;;;;;;;;;;19.10;34.50;;;;;;5117299;28;19908;-63
2022/01/26 04:49:34;;;;;;;;;;;19.20;34.50;;;;;;5117586;28;19966;-63
2022/01/26 04:52:00;;;;;;;;;;;19.20;34.50;;;;;;5117555;28;19950;-64
2022/01/26 04:54:26;;;;;;;;;;;19.10;34.60;;;;;;5117422;28;20371;-63
2022/01/26 04:56:51;;;;;;;;;;;19.10;34.50;;;;;;5117313;28;19968;-63
2022/01/26 04:59:17;;;;;;;;;;;19.20;34.50;;;;;;5117219;28;19919;-64
2022/01/26 05:01:42;;;;;;;;;;;19.20;34.60;;;;;;5117464;28;19947;-63
2022/01/26 05:04:08;;;;;;;;;;;19.10;34.60;;;;;;5117093;28;20381;-63
2022/01/26 05:06:33;;;;;;;;;;;19.10;34.60;;;;;;5117216;28;19912;-63
2022/01/26 05:08:58;;;;;;;;;;;19.10;34.60;;;;;;5117113;28;19908;-64
2022/01/26 05:11:37;;;;;;;;;;;19.20;34.60;;;;;;5117165;28;19914;-63
2022/01/26 05:14:03;;;;;;;;;;;19.10;34.60;;;;;;5117340;28;19914;-63
2022/01/26 05:16:29;;;;;;;;;;;19.10;34.50;;;;;;5117187;28;19957;-63
2022/01/26 05:18:55;;;;;;;;;;;19.10;34.50;;;;;;5116906;28;19908;-63
2022/01/26 05:21:21;;;;;;;;;;;19.20;34.50;;;;;;5116971;28;19907;-63
2022/01/26 05:23:46;;;;;;;;;;;19.10;34.40;;;;;;5116663;28;19907;-63
2022/01/26 05:26:12;;;;;;;;;;;19.20;34.40;;;;;;5116918;28;20363;-63
2022/01/26 05:28:38;;;;;;;;;;;19.20;34.40;;;;;;5098647;28;20006;-62
2022/01/26 05:31:03;;;;;;;;;;;19.20;34.30;;;;;;5116742;28;19915;-63
2022/01/26 05:33:29;;;;;;;;;;;19.20;34.40;;;;;;5116825;28;19918;-63
2022/01/26 05:35:54;;;;;;;;;;;19.30;34.30;;;;;;5098520;28;20375;-63
2022/01/26 05:38:20;;;;;;;;;;;19.30;34.30;;;;;;5116625;28;19914;-63
2022/01/26 05:40:46;;;;;;;;;;;19.30;34.20;;;;;;5116850;28;20347;-63
2022/01/26 05:43:11;;;;;;;;;;;19.30;34.20;;;;;;5116760;28;19908;-63
2022/01/26 05:45:39;;;;;;;;;;;19.30;34.30;;;;;;5116633;28;19916;-63
2022/01/26 05:48:09;;;;;;;;;;;19.40;34.20;;;;;;5116785;28;20374;-63
2022/01/26 05:50:36;;;;;;;;;;;19.40;34.20;;;;;;5116389;28;19952;-63
2022/01/26 05:53:02;;;;;;;;;;;19.40;34.20;;;;;;5116191;28;19961;-63
2022/01/26 05:55:27;;;;;;;;;;;19.40;34.20;;;;;;5115282;28;19912;-63
2022/01/26 05:57:53;;;;;;;;;;;19.40;34.20;;;;;;5116195;28;19912;-63
2022/01/26 06:00:18;;;;;;;;;;;19.40;34.20;;;;;;5115925;28;19926;-63
2022/01/26 06:02:44;;;;;;;;;;;19.40;34.10;;;;;;5116254;28;19907;-63
2022/01/26 06:05:10;;;;;;;;;;;19.40;34.10;;;;;;5115722;28;20392;-63
2022/01/26 06:07:36;;;;;;;;;;;19.40;34.10;;;;;;5115887;28;19908;-63
2022/01/26 06:10:02;;;;;;;;;;;19.40;34.10;;;;;;5116258;28;19910;-63
2022/01/26 06:12:29;;;;;;;;;;;19.50;34.20;;;;;;5115887;28;19960;-63
2022/01/26 06:14:55;;;;;;;;;;;19.50;34.10;;;;;;5115897;28;19915;-63
2022/01/26 06:17:20;;;;;;;;;;;19.50;34.10;;;;;;5115815;28;19908;-63
2022/01/26 06:19:46;;;;;;;;;;;19.50;34.10;;;;;;5115532;28;19912;-64
2022/01/26 06:22:11;;;;;;;;;;;19.50;34.10;;;;;;5115655;28;19915;-63
2022/01/26 06:24:37;;;;;;;;;;;19.50;34.10;;;;;;5115640;28;19920;-63
2022/01/26 06:27:02;;;;;;;;;;;19.50;34.10;;;;;;5115638;28;19908;-63
2022/01/26 06:29:30;;;;;;;;;;;19.50;34.10;;;;;;5115812;28;19912;-63
2022/01/26 06:31:56;;;;;;;;;;;19.50;34.10;;;;;;5115830;28;19907;-63
2022/01/26 06:34:21;;;;;;;;;;;19.50;34.10;;;;;;5115543;28;20397;-63
2022/01/26 06:36:47;;;;;;;;;;;19.50;34.10;;;;;;5115330;28;19908;-63
2022/01/26 06:39:13;;;;;;;;;;;19.50;34.10;;;;;;5115137;28;19914;-63
2022/01/26 06:41:40;;;;;;;;;;;19.50;34.10;;;;;;5115350;28;20055;-63
2022/01/26 06:44:19;;;;;;;;;;;19.50;34.10;;;;;;5115139;28;19908;-63
2022/01/26 06:46:53;;;;;;;;;;;19.50;34.10;;;;;;5115414;28;19907;-63
2022/01/26 06:51:47;;;;;;;;;;;19.50;34.20;;;;;;5115483;28;20344;-63
2022/01/26 06:54:13;;;;;;;;;;;19.50;34.10;;;;;;5115094;28;19915;-62
2022/01/26 06:56:38;;;;;;;;;;;19.50;34.00;;;;;;5115359;28;20362;-63
2022/01/26 06:59:04;;;;;;;;;;;19.50;34.00;;;;;;5115009;28;20006;-62
2022/01/26 07:01:29;;;;;;;;;;;19.50;34.10;;;;;;5114882;28;20281;-64
2022/01/26 07:03:55;;;;;;;;;;;19.50;34.10;;;;;;5114808;28;20321;-64
2022/01/26 07:06:20;;;;;;;;;;;19.50;34.00;;;;;;5114478;28;20255;-64
2022/01/26 07:08:46;;;;;;;;;;;19.50;34.00;;;;;;5096012;28;19930;-64
2022/01/26 07:11:12;;;;;;;;;;;19.50;34.10;;;;;;5115107;28;19908;-64
2022/01/26 07:13:39;;;;;;;;;;;19.50;34.00;;;;;;5114755;28;19914;-64
2022/01/26 07:21:33;;;;;;;;;;;19.50;34.00;;;;;;5114621;28;19953;-62
2022/01/26 07:23:59;;;;;;;;;;;19.50;33.90;;;;;;5114498;28;20317;-63
2022/01/26 07:26:28;;;;;;;;;;;19.50;33.90;;;;;;5110346;28;19965;-65
2022/01/26 07:28:54;;;;;;;;;;;19.50;34.00;;;;;;5081620;28;19920;-61
2022/01/26 07:31:19;;;;;;;;;;;19.60;34.20;;;;;;5091452;28;19912;-64
2022/01/26 07:33:45;;;;;;;;;;;19.60;34.10;;;;;;5096061;28;20022;-62
2022/01/26 07:36:10;;;;;;;;;;;19.60;34.10;;;;;;5095981;28;19957;-64
2022/01/26 07:38:36;;;;;;;;;;;19.60;34.10;;;;;;5092212;28;19919;-64
2022/01/26 07:41:02;;;;;;;;;;;19.60;33.90;;;;;;5092058;28;19916;-65
2022/01/26 07:43:27;;;;;;;;;;;19.60;34.00;;;;;;5091975;28;19912;-64
2022/01/26 07:45:53;;;;;;;;;;;19.60;34.00;;;;;;5092082;28;19966;-64
2022/01/26 07:48:18;;;;;;;;;;;19.60;34.10;;;;;;5094633;28;19920;-62
2022/01/26 07:50:45;;;;;;;;;;;19.70;34.00;;;;;;5080147;28;19965;-62
2022/01/26 07:53:16;;;;;;;;;;;19.70;33.90;;;;;;5090953;28;19911;-65
2022/01/26 07:55:42;;;;;;;;;;;19.70;33.90;;;;;;5092883;28;19935;-63
2022/01/26 07:58:11;;;;;;;;;;;19.70;34.10;;;;;;5087858;28;20320;-63
2022/01/26 08:00:37;;;;;;;;;;;19.60;34.30;;;;;;5097367;28;19919;-66
2022/01/26 08:03:02;;;;;;;;;;;19.70;34.20;;;;;;5103692;28;19912;-63
2022/01/26 08:05:28;;;;;;;;;;;19.70;34.10;;;;;;5098638;28;19931;-64
2022/01/26 08:07:53;;;;;;;;;;;19.70;34.20;;;;;;5095034;28;19912;-62
2022/01/26 08:10:19;;;;;;;;;;;19.70;34.20;;;;;;5096343;28;19957;-63
2022/01/26 08:12:45;;;;;;;;;;;19.70;34.00;;;;;;5091559;28;20334;-63
2022/01/26 08:15:10;;;;;;;;;;;19.70;34.10;;;;;;5089772;28;19926;-63
2022/01/26 08:17:36;;;;;;;;;;;19.80;34.20;;;;;;5100188;28;19919;-61
2022/01/26 08:20:04;;;;;;;;;;;19.80;34.20;;;;;;5102670;28;20347;-63
2022/01/26 08:22:30;;;;;;;;;;;19.80;34.20;;;;;;5098862;28;19946;-63
2022/01/26 08:24:56;;;;;;;;;;;19.80;34.40;;;;;;5104077;28;19936;-63
2022/01/26 08:27:24;;;;;;;;;;;19.80;34.40;;;;;;5092826;28;20052;-63
2022/01/26 08:29:54;;;;;;;;;;;19.80;34.40;;;;;;5095782;28;19915;-62
2022/01/26 08:32:19;;;;;;;;;;;19.80;34.40;;;;;;5099879;28;20434;-62
2022/01/26 08:34:45;;;;;;;;;;;19.80;34.50;;;;;;5111639;28;20045;-60
2022/01/26 08:37:10;;;;;;;;;;;19.80;34.50;;;;;;5102526;28;20384;-63
2022/01/26 08:39:36;;;;;;;;;;;19.80;34.50;;;;;;5107111;28;20279;-62
2022/01/26 08:42:02;;;;;;;;;;;19.80;34.70;;;;;;5092358;28;19942;-62
2022/01/26 08:44:28;;;;;;;;;;;19.80;34.60;;;;;;5094220;28;19927;-62
2022/01/26 08:46:54;;;;;;;;;;;19.80;34.60;;;;;;5094379;28;19912;-62
2022/01/26 08:49:21;;;;;;;;;;;19.80;34.60;;;;;;5105295;28;20345;-62
2022/01/26 08:51:49;;;;;;;;;;;19.80;34.60;;;;;;5090726;28;20261;-62
2022/01/26 08:54:14;;;;;;;;;;;19.80;34.60;;;;;;5098783;28;19912;-62
2022/01/26 08:56:40;;;;;;;;;;;19.80;34.60;;;;;;5094435;28;19942;-63
2022/01/26 08:59:05;;;;;;;;;;;19.80;34.60;;;;;;5091090;28;19924;-63
2022/01/26 09:01:31;;;;;;;;;;;19.80;34.60;;;;;;5093812;28;19957;-64
2022/01/26 09:03:56;;;;;;;;;;;19.90;34.60;;;;;;5093678;28;19916;-63
2022/01/26 09:06:22;;;;;;;;;;;19.80;34.60;;;;;;5093342;28;20026;-63
2022/01/26 09:08:55;;;;;;;;;;;19.90;34.60;;;;;;5093606;28;20317;-62
2022/01/26 09:11:22;;;;;;;;;;;19.90;34.60;;;;;;5095279;28;20322;-63
2022/01/26 09:13:55;;;;;;;;;;;19.90;34.50;;;;;;5103501;28;19966;-63
2022/01/26 09:16:23;;;;;;;;;;;19.90;34.60;;;;;;5091382;28;20011;-63
2022/01/26 09:18:52;;;;;;;;;;;19.90;34.70;;;;;;5097187;28;19916;-61
2022/01/26 09:21:18;;;;;;;;;;;19.90;34.70;;;;;;5080684;28;19961;-64
2022/01/26 09:23:44;;;;;;;;;;;19.90;34.70;;;;;;5102406;28;19912;-65
2022/01/26 09:26:09;;;;;;;;;;;19.90;34.70;;;;;;5105675;28;19923;-63
2022/01/26 09:28:35;;;;;;;;;;;19.90;34.80;;;;;;5101121;28;19911;-64
2022/01/26 09:31:00;;;;;;;;;;;20.00;34.80;;;;;;5096300;28;19968;-62
2022/01/26 09:33:26;;;;;;;;;;;19.90;34.80;;;;;;5110529;28;20371;-62
2022/01/26 09:35:51;;;;;;;;;;;19.90;34.70;;;;;;5098487;28;19951;-62
2022/01/26 09:38:17;;;;;;;;;;;19.90;34.80;;;;;;5089931;28;19916;-63
2022/01/26 09:40:43;;;;;;;;;;;19.90;34.80;;;;;;5100021;28;20285;-63
2022/01/26 09:43:08;;;;;;;;;;;20.00;34.90;;;;;;5090801;28;20620;-62
2022/01/26 09:45:34;;;;;;;;;;;20.00;34.80;;;;;;5093005;28;20015;-62
2022/01/26 09:48:00;;;;;;;;;;;20.00;34.80;;;;;;5088061;28;19915;-61
2022/01/26 09:50:26;;;;;;;;;;;19.90;34.80;;;;;;5104784;28;19916;-62
2022/01/26 09:52:53;;;;;;;;;;;20.00;34.90;;;;;;5095999;28;19912;-63
2022/01/26 09:55:19;;;;;;;;;;;20.00;34.80;;;;;;5095040;28;19923;-63
2022/01/26 09:57:44;;;;;;;;;;;20.00;34.80;;;;;;5105548;28;19908;-62
2022/01/26 10:00:11;;;;;;;;;;;20.00;34.80;;;;;;5093229;28;19975;-60
2022/01/26 10:02:37;;;;;;;;;;;20.00;34.80;;;;;;5077523;28;20414;-69
2022/01/26 10:05:06;;;;;;;;;;;19.90;34.90;;;;;;5074068;28;20379;-66
2022/01/26 10:18:08;;;;;;;;;;;20.00;34.90;;;;;;5064971;28;19947;-64
2022/01/26 10:20:44;;;;;;;;;;;20.00;34.90;;;;;;5068800;28;20326;-61
2022/01/26 10:23:13;;;;;;;;;;;19.90;34.80;;;;;;5075812;28;19920;-64
2022/01/26 10:25:41;;;;;;;;;;;20.00;34.80;;;;;;5068195;28;20403;-64
2022/01/26 10:28:09;;;;;;;;;;;20.00;35.10;;;;;;5082533;28;19963;-61
2022/01/26 10:30:35;;;;;;;;;;;19.90;35.00;;;;;;5075108;28;19912;-62
2022/01/26 10:33:06;;;;;;;;;;;20.00;34.90;;;;;;5089496;28;19935;-63
2022/01/26 10:35:31;;;;;;;;;;;20.00;35.10;;;;;;5085679;28;19943;-64
2022/01/26 10:37:57;;;;;;;;;;;20.00;35.00;;;;;;5095842;27;19973;-64
2022/01/26 10:40:24;;;;;;;;;;;20.00;35.00;;;;;;5075363;28;20007;-64
2022/01/26 10:43:06;;;;;;;;;;;20.00;35.00;;;;;;5073322;28;19920;-63
2022/01/26 10:45:38;;;;;;;;;;;20.00;35.00;;;;;;5071841;28;19928;-63
2022/01/26 10:48:24;;;;;;;;;;;20.00;35.00;;;;;;5072422;28;19923;-64
2022/01/26 10:53:37;;;;;;;;;;;19.90;35.10;;;;;;5073854;28;19919;-64
2022/01/26 10:56:03;;;;;;;;;;;19.90;35.10;;;;;;5079575;28;19918;-63
2022/01/26 10:58:30;;;;;;;;;;;19.90;35.10;;;;;;5077594;28;20379;-64
2022/01/26 11:00:55;;;;;;;;;;;19.90;35.10;;;;;;5098277;28;20018;-64
2022/01/26 11:03:21;;;;;;;;;;;19.90;35.10;;;;;;5103586;28;20402;-64
2022/01/26 11:05:46;;;;;;;;;;;19.90;35.10;;;;;;5092066;28;19920;-65
2022/01/26 11:08:12;;;;;;;;;;;20.00;35.10;;;;;;5093190;28;20368;-64
2022/01/26 11:10:39;;;;;;;;;;;20.00;35.20;;;;;;5107956;28;19968;-64
2022/01/26 11:13:05;;;;;;;;;;;20.00;35.10;;;;;;5101896;28;20286;-64
2022/01/26 11:15:31;;;;;;;;;;;19.90;35.20;;;;;;5087948;28;19951;-63
2022/01/26 11:18:04;;;;;;;;;;;20.00;35.20;;;;;;5092236;28;19911;-62
2022/01/26 11:20:32;;;;;;;;;;;19.90;35.20;;;;;;5107067;28;19907;-63
2022/01/26 11:23:02;;;;;;;;;;;20.00;35.30;;;;;;5091622;28;19965;-64
2022/01/26 11:25:29;;;;;;;;;;;19.90;35.20;;;;;;5090776;28;19996;-63
2022/01/26 11:27:55;;;;;;;;;;;19.90;35.20;;;;;;5091577;28;20007;-64
2022/01/26 11:30:25;;;;;;;;;;;20.00;35.30;;;;;;5089857;28;19953;-64
2022/01/26 11:32:52;;;;;;;;;;;20.00;35.20;;;;;;5095878;28;20393;-63
2022/01/26 11:35:18;;;;;;;;;;;20.00;35.20;;;;;;5074442;28;20317;-64
2022/01/26 11:37:49;;;;;;;;;;;20.00;35.20;;;;;;5097482;28;19915;-63
2022/01/26 11:46:06;;;;;;;;;;;20.00;35.20;;;;;;5096218;28;20032;-66
2022/01/26 11:48:31;;;;;;;;;;;20.00;35.20;;;;;;5106066;28;20412;-63
2022/01/26 11:50:58;;;;;;;;;;;20.00;35.20;;;;;;5096647;28;19912;-63
2022/01/26 11:53:25;;;;;;;;;;;20.00;35.20;;;;;;5108376;28;19912;-63
2022/01/26 11:55:58;;;;;;;;;;;20.00;35.20;;;;;;5091163;28;19916;-65
2022/01/26 11:58:32;;;;;;;;;;;20.00;35.20;;;;;;5098168;28;20386;-65
2022/01/26 12:01:25;;;;;;;;;;;20.00;35.20;;;;;;5096971;28;19923;-62
2022/01/26 12:04:00;;;;;;;;;;;20.00;35.30;;;;;;5101628;28;19908;-63
2022/01/26 12:06:30;;;;;;;;;;;20.00;35.20;;;;;;5092774;28;20015;-63
2022/01/26 12:08:58;;;;;;;;;;;19.90;35.40;;;;;;5092789;28;19941;-63
2022/01/26 12:11:24;;;;;;;;;;;20.00;35.40;;;;;;5100618;28;19966;-62
2022/01/26 12:13:56;;;;;;;;;;;20.00;35.30;;;;;;5099873;28;19915;-62
2022/01/26 12:16:24;;;;;;;;;;;20.00;35.40;;;;;;5103436;28;19908;-63
2022/01/26 12:18:58;;;;;;;;;;;20.00;35.30;;;;;;5071764;28;19913;-63
2022/01/26 12:37:59;;;;;;;;;;;20.00;35.50;;;;;;5090543;28;19912;-64
2022/01/26 12:43:31;;;;;;;;;;;20.00;35.50;;;;;;5109556;28;20324;-65
2022/01/26 12:45:57;;;;;;;;;;;20.00;35.50;;;;;;5095072;28;19920;-64
2022/01/26 12:48:22;;;;;;;;;;;20.00;35.60;;;;;;5082315;28;19942;-62
2022/01/26 12:50:48;;;;;;;;;;;20.00;35.50;;;;;;5077694;28;19970;-63
2022/01/26 12:53:14;;;;;;;;;;;20.00;35.50;;;;;;5071964;28;19909;-64
2022/01/26 12:55:40;;;;;;;;;;;20.00;35.50;;;;;;5091820;28;19971;-63
2022/01/26 12:58:05;;;;;;;;;;;20.00;35.60;;;;;;5103599;28;19911;-63
2022/01/26 13:00:39;;;;;;;;;;;20.00;35.60;;;;;;5084548;28;19927;-62
2022/01/26 13:03:11;;;;;;;;;;;20.00;35.60;;;;;;5092282;28;19919;-64
2022/01/26 13:05:36;;;;;;;;;;;20.00;35.70;;;;;;5096867;28;19924;-64
2022/01/26 13:08:03;;;;;;;;;;;20.00;35.70;;;;;;5108887;28;19939;-64
2022/01/26 13:10:30;;;;;;;;;;;20.00;35.80;;;;;;5087243;28;20206;-64
2022/01/26 13:12:56;;;;;;;;;;;20.00;35.80;;;;;;5079523;28;20374;-64
2022/01/26 13:15:36;;;;;;;;;;;20.00;35.70;;;;;;5093036;28;19912;-60
2022/01/26 13:18:16;;;;;;;;;;;20.00;35.80;;;;;;5112018;28;19916;-60
2022/01/26 13:21:04;;;;;;;;;;;20.00;35.70;;;;;;5097414;28;19920;-63
2022/01/26 13:23:37;;;;;;;;;;;20.00;35.70;;;;;;5111684;28;19961;-63
2022/01/26 13:28:55;;;;;;;;;;;20.00;35.70;;;;;;5104331;28;19915;-64
2022/01/26 13:32:02;;;;;;;;;;;20.00;35.70;;;;;;5099067;28;19919;-64
2022/01/26 13:34:51;;;;;;;;;;;20.00;35.80;;;;;;5104426;28;20295;-64
2022/01/26 13:38:11;;;;;;;;;;;20.00;35.90;;;;;;5106534;28;19965;-64
2022/01/26 13:40:24;;;;;;;;;;;20.00;35.90;;;;;;5074650;28;19973;-63
2022/01/26 13:45:53;;;;;;;;;;;20.00;35.90;;;;;;5097943;28;19923;-65
2022/01/26 13:51:02;;;;;;;;;;;20.00;35.90;;;;;;5094703;28;19916;-63
2022/01/26 13:53:47;;;;;;;;;;;20.20;35.70;;;;;;5108059;28;20018;-64
2022/01/26 13:56:19;;;;;;;;;;;20.10;35.80;;;;;;5088405;28;20305;-63
2022/01/26 13:58:56;;;;;;;;;;;20.20;35.70;;;;;;5091344;28;20015;-64
2022/01/26 14:01:21;;;;;;;;;;;20.10;35.80;;;;;;5094882;28;19918;-63
2022/01/26 14:03:50;;;;;;;;;;;20.10;35.80;;;;;;5081042;28;19995;-65
2022/01/26 14:06:16;;;;;;;;;;;20.10;35.70;;;;;;5100129;28;19920;-67
2022/01/26 14:08:42;;;;;;;;;;;20.00;35.70;;;;;;5082169;28;19949;-64
2022/01/26 14:11:08;;;;;;;;;;;20.00;35.70;;;;;;5105446;28;19913;-65
2022/01/26 14:13:35;;;;;;;;;;;20.00;35.70;;;;;;5108710;28;20439;-65
2022/01/26 14:16:01;;;;;;;;;;;20.00;35.80;;;;;;5090666;28;19912;-63
2022/01/26 14:20:56;;;;;;;;;;;20.00;35.80;;;;;;5104010;28;19912;-63
2022/01/26 14:25:57;;;;;;;;;;;20.00;35.70;;;;;;5099729;28;19942;-63
2022/01/26 14:28:29;;;;;;;;;;;20.00;35.80;;;;;;5083896;28;20039;-65
2022/01/26 14:53:53;;;;;;;;;;;20.00;35.90;;;;;;5103281;28;19965;-63
2022/01/26 15:29:57;;;;;;;;;;;20.00;35.90;;;;;;5072924;28;19915;-64
2022/01/26 15:33:37;;;;;;;;;;;20.00;36.00;;;;;;5090118;28;19919;-64
2022/01/26 15:40:04;;;;;;;;;;;20.10;36.00;;;;;;5078523;28;20377;-63
2022/01/26 15:44:19;;;;;;;;;;;20.10;35.80;;;;;;5072944;28;19908;-63
2022/01/26 15:52:06;;;;;;;;;;;20.00;35.90;;;;;;5090224;28;19955;-63
2022/01/26 15:57:25;;;;;;;;;;;20.00;35.90;;;;;;5093976;28;20379;-63
2022/01/26 16:19:44;;;;;;;;;;;20.00;35.90;;;;;;5090581;28;19915;-64
2022/01/26 16:28:14;;;;;;;;;;;20.00;35.90;;;;;;5112909;28;20401;-64
2022/01/26 18:13:10;;;;;;;;;;;19.90;35.60;;;;;;5075749;28;20453;-65
2022/01/26 18:15:42;;;;;;;;;;;20.00;35.60;;;;;;5075660;28;19916;-64
2022/01/26 18:39:42;;;;;;;;;;;19.90;35.50;;;;;;5075108;28;19915;-64
2022/01/26 18:50:13;;;;;;;;;;;19.90;35.60;;;;;;5075016;28;19916;-65
2022/01/26 18:52:38;;;;;;;;;;;19.90;35.60;;;;;;5074594;28;19947;-65
2022/01/26 18:55:05;;;;;;;;;;;19.90;35.60;;;;;;5074547;28;19948;-64
2022/01/26 18:57:30;;;;;;;;;;;19.80;35.50;;;;;;5074599;28;20356;-64
2022/01/26 18:59:56;;;;;;;;;;;19.80;35.50;;;;;;5074290;28;19974;-64
2022/01/26 19:02:25;;;;;;;;;;;19.80;35.60;;;;;;5074202;28;19916;-64
2022/01/26 19:04:52;;;;;;;;;;;19.90;35.50;;;;;;5073824;28;21287;-64
2022/01/26 19:07:17;;;;;;;;;;;19.80;35.50;;;;;;5074439;28;19908;-64
2022/01/26 19:09:46;;;;;;;;;;;19.80;35.60;;;;;;5074223;28;19912;-64
2022/01/26 19:12:14;;;;;;;;;;;19.80;35.50;;;;;;5074305;28;19908;-64
2022/01/26 19:14:44;;;;;;;;;;;19.80;35.50;;;;;;5074237;28;19913;-64
2022/01/26 19:19:48;;;;;;;;;;;19.80;35.50;;;;;;5074438;28;19987;-64
2022/01/26 19:27:27;;;;;;;;;;;19.80;35.50;;;;;;5074295;28;19940;-64
2022/01/26 19:30:41;;;;;;;;;;;19.80;35.50;;;;;;5073856;28;19908;-64
2022/01/26 19:33:03;;;;;;;;;;;19.80;35.50;;;;;;5073510;28;19908;-64
2022/01/26 19:51:43;;;;;;;;;;;19.80;35.50;;;;;;5073897;28;20297;-65
2022/01/26 19:54:08;;;;;;;;;;;19.80;35.50;;;;;;5073481;28;19940;-65
2022/01/26 19:56:34;;;;;;;;;;;19.80;35.50;;;;;;5073398;28;20370;-64
2022/01/26 19:58:59;;;;;;;;;;;19.80;35.50;;;;;;5073384;28;20398;-64
2022/01/26 20:01:25;;;;;;;;;;;19.80;35.50;;;;;;5073601;28;20283;-65
2022/01/26 20:03:51;;;;;;;;;;;19.80;35.50;;;;;;5073429;28;20279;-65
2022/01/26 20:06:17;;;;;;;;;;;19.80;35.50;;;;;;5073310;28;20307;-65
2022/01/26 20:08:55;;;;;;;;;;;19.80;35.50;;;;;;5055362;28;19999;-65
2022/01/26 20:11:30;;;;;;;;;;;19.80;35.50;;;;;;5073219;28;19995;-64
2022/01/26 20:14:01;;;;;;;;;;;19.70;35.50;;;;;;5072903;28;19946;-64
2022/01/26 20:16:26;;;;;;;;;;;19.80;35.50;;;;;;5073225;28;19909;-64
2022/01/26 20:18:52;;;;;;;;;;;19.80;35.50;;;;;;5073034;28;20393;-64
2022/01/26 20:21:17;;;;;;;;;;;19.80;35.50;;;;;;5072214;28;19936;-64
2022/01/26 20:23:44;;;;;;;;;;;19.80;35.50;;;;;;5073141;28;20356;-64
2022/01/26 20:26:10;;;;;;;;;;;19.80;35.50;;;;;;5073294;28;19920;-64
2022/01/26 20:28:38;;;;;;;;;;;19.80;35.50;;;;;;5073256;28;19995;-64
2022/01/26 20:31:05;;;;;;;;;;;19.80;35.40;;;;;;5073417;28;19999;-64
2022/01/26 20:33:31;;;;;;;;;;;19.80;35.40;;;;;;5073222;28;19908;-64
2022/01/26 20:35:56;;;;;;;;;;;19.80;35.40;;;;;;5073405;28;19908;-64
2022/01/26 20:38:22;;;;;;;;;;;19.80;35.40;;;;;;5073215;28;19952;-63
2022/01/26 20:40:47;;;;;;;;;;;19.80;35.40;;;;;;5073042;28;19916;-64
2022/01/26 20:43:13;;;;;;;;;;;19.80;35.40;;;;;;5073326;28;19909;-64
2022/01/26 20:45:39;;;;;;;;;;;19.80;35.40;;;;;;5072995;28;19923;-64
2022/01/26 20:48:05;;;;;;;;;;;19.80;35.40;;;;;;5072994;28;19934;-64
2022/01/26 20:50:33;;;;;;;;;;;19.80;35.40;;;;;;5073122;28;19908;-65
2022/01/26 20:52:59;;;;;;;;;;;19.80;35.40;;;;;;5073257;28;20271;-64